Time;durP1;ratioP1;P1;durP2;ratioP2;P2;SDS_P1;SDS_P2;PMS_P1;PMS_P2;Temp;Humidity;BMP_temperature;BMP_pressure;BME280_temperature;BME280_humidity;BME280_pressure;Samples;Min_cycle;Max_cycle;Signal;HPM_P1;HPM_P2
2023/07/11 00:00:14;;;;;;;;;;;25.50;57.00;;;;;;4012144;29;20395;-52
2023/07/11 00:02:55;;;;;;;;;;;25.50;57.10;;;;;;4012654;29;19935;-49
2023/07/11 00:05:37;;;;;;;;;;;25.50;57.10;;;;;;4013745;29;19935;-53
2023/07/11 00:08:18;;;;;;;;;;;25.50;57.20;;;;;;4012973;29;19935;-52
2023/07/11 00:10:59;;;;;;;;;;;25.40;57.10;;;;;;4013417;29;19950;-48
2023/07/11 00:13:40;;;;;;;;;;;25.40;57.20;;;;;;3999687;29;19931;-50
2023/07/11 00:16:21;;;;;;;;;;;25.40;57.20;;;;;;3997832;29;20395;-48
2023/07/11 00:19:03;;;;;;;;;;;25.40;57.30;;;;;;4001634;29;19962;-50
2023/07/11 00:21:45;;;;;;;;;;;25.40;57.30;;;;;;4005052;29;19938;-51
2023/07/11 00:24:25;;;;;;;;;;;25.40;57.30;;;;;;4013413;29;20292;-51
2023/07/11 00:27:06;;;;;;;;;;;25.40;57.40;;;;;;4013150;29;20300;-52
2023/07/11 00:29:47;;;;;;;;;;;25.40;58.10;;;;;;4000553;29;20466;-47
2023/07/11 00:32:28;;;;;;;;;;;25.40;57.40;;;;;;4000961;29;20470;-51
2023/07/11 00:35:09;;;;;;;;;;;25.40;57.40;;;;;;4012437;29;19980;-49
2023/07/11 00:37:51;;;;;;;;;;;25.40;57.30;;;;;;4012938;29;19945;-52
2023/07/11 00:40:32;;;;;;;;;;;25.30;57.30;;;;;;4012501;29;19931;-48
2023/07/11 00:43:13;;;;;;;;;;;25.30;57.30;;;;;;4000794;29;20288;-48
2023/07/11 00:46:01;;;;;;;;;;;25.30;57.30;;;;;;4001375;29;19950;-50
2023/07/11 00:48:44;;;;;;;;;;;25.30;57.40;;;;;;3997955;29;20068;-47
2023/07/11 00:51:27;;;;;;;;;;;25.30;58.10;;;;;;4005790;29;19980;-47
2023/07/11 00:54:12;;;;;;;;;;;25.30;57.50;;;;;;4012155;29;19934;-51
2023/07/11 00:56:52;;;;;;;;;;;25.30;58.20;;;;;;4012435;29;19988;-52
2023/07/11 00:59:33;;;;;;;;;;;25.30;57.50;;;;;;4001031;29;19968;-50
2023/07/11 01:02:15;;;;;;;;;;;25.30;57.50;;;;;;3991309;29;19984;-49
2023/07/11 01:04:56;;;;;;;;;;;25.30;57.60;;;;;;3997794;29;19932;-48
2023/07/11 01:07:37;;;;;;;;;;;25.30;57.60;;;;;;3996991;29;20257;-50
2023/07/11 01:10:20;;;;;;;;;;;25.20;57.60;;;;;;3997109;29;20293;-49
2023/07/11 01:13:02;;;;;;;;;;;25.30;58.40;;;;;;3999074;29;19931;-47
2023/07/11 01:15:43;;;;;;;;;;;25.20;57.60;;;;;;4005102;29;20405;-49
2023/07/11 01:18:23;;;;;;;;;;;25.20;57.70;;;;;;4004165;29;20289;-47
2023/07/11 01:21:05;;;;;;;;;;;25.20;57.70;;;;;;4009522;29;19930;-46
2023/07/11 01:23:47;;;;;;;;;;;25.20;57.70;;;;;;4001130;29;19994;-49
2023/07/11 01:26:29;;;;;;;;;;;25.20;57.70;;;;;;4012307;29;20295;-48
2023/07/11 01:29:11;;;;;;;;;;;25.20;57.80;;;;;;4012338;29;20024;-48
2023/07/11 01:31:53;;;;;;;;;;;25.20;57.80;;;;;;4000742;29;20000;-48
2023/07/11 01:34:34;;;;;;;;;;;25.20;57.80;;;;;;4005004;29;19931;-43
2023/07/11 01:37:14;;;;;;;;;;;25.20;57.80;;;;;;4011789;29;20399;-47
2023/07/11 01:39:57;;;;;;;;;;;25.20;57.70;;;;;;4015447;29;19967;-48
2023/07/11 01:42:40;;;;;;;;;;;25.10;57.50;;;;;;4015511;29;19931;-50
2023/07/11 01:45:20;;;;;;;;;;;25.10;57.10;;;;;;3988826;29;19931;-46
2023/07/11 01:48:01;;;;;;;;;;;25.10;57.10;;;;;;4000097;29;20068;-47
2023/07/11 01:50:42;;;;;;;;;;;25.10;57.50;;;;;;3989752;29;19934;-46
2023/07/11 01:53:23;;;;;;;;;;;25.00;57.70;;;;;;4011087;29;20277;-45
2023/07/11 01:56:05;;;;;;;;;;;25.10;57.80;;;;;;4015407;29;20299;-45
2023/07/11 01:58:46;;;;;;;;;;;25.00;57.80;;;;;;4001809;29;20597;-47
2023/07/11 02:01:27;;;;;;;;;;;25.00;57.90;;;;;;4000017;29;19935;-47
2023/07/11 02:04:09;;;;;;;;;;;25.00;57.90;;;;;;4003289;29;20403;-51
2023/07/11 02:06:50;;;;;;;;;;;25.00;58.00;;;;;;4014764;29;20284;-50
2023/07/11 02:09:30;;;;;;;;;;;25.00;58.70;;;;;;3999490;29;19936;-50
2023/07/11 02:12:13;;;;;;;;;;;25.00;58.00;;;;;;3999011;29;19947;-49
2023/07/11 02:14:54;;;;;;;;;;;25.00;58.10;;;;;;4009610;29;19962;-44
2023/07/11 02:17:35;;;;;;;;;;;25.00;58.10;;;;;;4015004;29;19938;-44
2023/07/11 02:20:16;;;;;;;;;;;25.00;58.10;;;;;;4014951;29;19931;-49
2023/07/11 02:22:59;;;;;;;;;;;25.00;58.20;;;;;;4015052;29;20077;-46
2023/07/11 02:25:40;;;;;;;;;;;25.00;58.20;;;;;;3988216;29;19979;-45
2023/07/11 02:28:23;;;;;;;;;;;25.00;58.20;;;;;;3998451;29;20030;-48
2023/07/11 02:31:03;;;;;;;;;;;24.90;58.20;;;;;;3999303;29;19931;-44
2023/07/11 02:33:47;;;;;;;;;;;24.90;58.20;;;;;;3999631;29;19955;-49
2023/07/11 02:36:28;;;;;;;;;;;24.90;58.30;;;;;;3999451;29;20073;-45
2023/07/11 02:39:09;;;;;;;;;;;24.90;58.30;;;;;;4006997;29;20019;-48
2023/07/11 02:41:53;;;;;;;;;;;24.90;58.30;;;;;;4001102;29;19935;-48
2023/07/11 02:44:35;;;;;;;;;;;24.90;58.30;;;;;;4014643;29;19931;-51
2023/07/11 02:47:15;;;;;;;;;;;24.90;58.30;;;;;;4013883;29;19940;-51
2023/07/11 02:49:56;;;;;;;;;;;24.90;58.30;;;;;;4014122;29;19935;-49
2023/07/11 02:52:36;;;;;;;;;;;24.80;58.30;;;;;;4014263;29;20430;-51
2023/07/11 02:55:18;;;;;;;;;;;24.90;58.50;;;;;;4013595;29;19944;-49
2023/07/11 02:57:58;;;;;;;;;;;24.80;58.50;;;;;;4007485;29;19934;-48
2023/07/11 03:00:46;;;;;;;;;;;24.80;58.60;;;;;;4013990;29;19934;-50
2023/07/11 03:03:27;;;;;;;;;;;24.80;58.70;;;;;;4013805;29;19930;-50
2023/07/11 03:06:08;;;;;;;;;;;24.80;58.70;;;;;;4011229;29;19935;-52
2023/07/11 03:08:49;;;;;;;;;;;24.80;58.70;;;;;;4013865;29;20424;-51
2023/07/11 03:11:30;;;;;;;;;;;24.80;59.50;;;;;;4013868;29;19930;-53
2023/07/11 03:14:10;;;;;;;;;;;24.80;58.80;;;;;;4005104;29;19930;-50
2023/07/11 03:16:53;;;;;;;;;;;24.80;58.90;;;;;;4004385;29;20154;-49
2023/07/11 03:19:34;;;;;;;;;;;24.80;58.90;;;;;;4013788;29;19935;-53
2023/07/11 03:22:14;;;;;;;;;;;24.80;59.00;;;;;;4013949;29;20489;-51
2023/07/11 03:24:55;;;;;;;;;;;24.80;59.00;;;;;;4013726;29;20296;-52
2023/07/11 03:27:36;;;;;;;;;;;24.70;59.00;;;;;;4014179;29;19931;-51
2023/07/11 03:30:18;;;;;;;;;;;24.80;59.00;;;;;;4009718;29;19935;-51
2023/07/11 03:33:00;;;;;;;;;;;24.70;59.00;;;;;;3998391;29;19934;-50
2023/07/11 03:35:41;;;;;;;;;;;24.70;59.10;;;;;;3997935;29;19932;-51
2023/07/11 03:38:22;;;;;;;;;;;24.70;59.20;;;;;;3998088;29;19935;-48
2023/07/11 03:41:02;;;;;;;;;;;24.70;59.20;;;;;;4006179;29;19931;-53
2023/07/11 03:43:42;;;;;;;;;;;24.70;59.30;;;;;;4012732;29;19952;-52
2023/07/11 03:46:23;;;;;;;;;;;24.70;59.30;;;;;;4012566;29;20387;-51
2023/07/11 03:49:06;;;;;;;;;;;24.70;59.40;;;;;;4003623;29;19935;-50
2023/07/11 03:51:46;;;;;;;;;;;24.70;59.40;;;;;;4012431;29;19931;-50
2023/07/11 03:54:27;;;;;;;;;;;24.60;59.40;;;;;;4012959;29;19935;-50
2023/07/11 03:57:08;;;;;;;;;;;24.70;59.40;;;;;;4009329;29;19932;-48
2023/07/11 03:59:48;;;;;;;;;;;24.70;59.50;;;;;;4012271;29;19935;-49
2023/07/11 04:02:29;;;;;;;;;;;24.70;59.50;;;;;;4013045;29;20328;-50
2023/07/11 04:05:11;;;;;;;;;;;24.70;59.60;;;;;;3997755;29;19981;-50
2023/07/11 04:07:51;;;;;;;;;;;24.70;59.50;;;;;;3994564;29;19939;-50
2023/07/11 04:10:32;;;;;;;;;;;24.60;59.50;;;;;;4012444;29;19980;-48
2023/07/11 04:13:13;;;;;;;;;;;24.70;59.60;;;;;;4012851;29;20395;-49
2023/07/11 04:15:53;;;;;;;;;;;24.70;59.70;;;;;;4001542;29;19931;-49
2023/07/11 04:18:34;;;;;;;;;;;24.60;59.60;;;;;;3997491;29;20300;-49
2023/07/11 04:21:24;;;;;;;;;;;24.70;60.60;;;;;;4195976;27;20424;-53
2023/07/11 04:24:05;;;;;;;;;;;24.60;59.70;;;;;;4202515;28;19943;-50
2023/07/11 04:26:46;;;;;;;;;;;24.60;59.70;;;;;;4197375;28;19948;-53
2023/07/11 04:29:27;;;;;;;;;;;24.60;59.70;;;;;;4169770;28;19932;-53
2023/07/11 04:32:08;;;;;;;;;;;24.70;59.80;;;;;;4169394;28;20407;-48
2023/07/11 04:34:50;;;;;;;;;;;24.60;59.80;;;;;;4152865;28;20059;-50
2023/07/11 04:37:32;;;;;;;;;;;24.70;59.90;;;;;;4198798;28;19931;-50
2023/07/11 04:40:13;;;;;;;;;;;24.70;59.90;;;;;;4175529;28;19936;-48
2023/07/11 04:42:53;;;;;;;;;;;24.70;59.90;;;;;;4185308;28;19932;-50
2023/07/11 04:45:34;;;;;;;;;;;24.70;59.90;;;;;;4190545;28;19935;-49
2023/07/11 04:48:15;;;;;;;;;;;24.70;60.00;;;;;;4185802;28;19932;-48
2023/07/11 04:50:57;;;;;;;;;;;24.70;60.00;;;;;;4168499;28;19936;-48
2023/07/11 04:53:40;;;;;;;;;;;24.70;60.00;;;;;;4178188;28;19932;-42
2023/07/11 04:56:20;;;;;;;;;;;24.70;60.00;;;;;;4185304;27;19948;-51
2023/07/11 04:59:01;;;;;;;;;;;24.70;59.90;;;;;;4185831;28;19936;-45
2023/07/11 05:01:41;;;;;;;;;;;24.70;59.90;;;;;;4183865;28;20371;-47
2023/07/11 05:04:22;;;;;;;;;;;24.70;60.30;;;;;;4181483;28;20398;-49
2023/07/11 05:07:04;;;;;;;;;;;24.70;60.00;;;;;;4166674;28;19932;-49
2023/07/11 05:09:46;;;;;;;;;;;24.70;59.90;;;;;;4172402;28;20347;-45
2023/07/11 05:12:37;;;;;;;;;;;24.70;60.00;;;;;;4184012;28;19973;-45
2023/07/11 05:15:18;;;;;;;;;;;24.70;60.00;;;;;;4177779;28;19932;-50
2023/07/11 05:17:59;;;;;;;;;;;24.70;59.90;;;;;;4173528;28;19936;-44
2023/07/11 05:20:40;;;;;;;;;;;24.70;59.90;;;;;;4168374;28;19974;-47
2023/07/11 05:23:21;;;;;;;;;;;24.70;59.90;;;;;;4162066;28;20295;-50
2023/07/11 05:26:04;;;;;;;;;;;24.70;59.90;;;;;;4167298;28;19970;-46
2023/07/11 05:28:45;;;;;;;;;;;24.80;60.00;;;;;;4168273;28;19933;-45
2023/07/11 05:31:26;;;;;;;;;;;24.90;59.90;;;;;;4177126;28;20079;-47
2023/07/11 05:34:07;;;;;;;;;;;24.90;59.80;;;;;;4174463;28;19932;-46
2023/07/11 05:36:47;;;;;;;;;;;25.00;59.70;;;;;;4173882;28;19936;-46
2023/07/11 05:39:28;;;;;;;;;;;25.00;59.50;;;;;;4168162;28;19932;-46
2023/07/11 05:42:10;;;;;;;;;;;25.10;59.50;;;;;;4173399;28;19951;-45
2023/07/11 05:44:51;;;;;;;;;;;25.10;59.50;;;;;;4173068;28;20319;-44
2023/07/11 05:47:32;;;;;;;;;;;25.10;60.30;;;;;;4172762;28;20516;-48
2023/07/11 05:50:12;;;;;;;;;;;25.10;59.50;;;;;;4179332;28;20009;-45
2023/07/11 05:52:53;;;;;;;;;;;25.10;59.50;;;;;;4190104;28;19936;-46
2023/07/11 05:55:34;;;;;;;;;;;25.10;59.60;;;;;;4172487;28;20485;-48
2023/07/11 05:58:15;;;;;;;;;;;25.10;59.60;;;;;;4173259;28;20079;-45
2023/07/11 06:00:56;;;;;;;;;;;25.10;59.70;;;;;;4172214;28;19935;-46
2023/07/11 06:03:37;;;;;;;;;;;25.00;59.60;;;;;;4173763;28;19932;-47
2023/07/11 06:06:19;;;;;;;;;;;25.00;59.70;;;;;;4189761;28;19935;-47
2023/07/11 06:09:00;;;;;;;;;;;25.00;59.80;;;;;;4189354;28;19932;-51
2023/07/11 06:11:41;;;;;;;;;;;24.90;59.80;;;;;;4157630;28;19936;-49
2023/07/11 06:14:24;;;;;;;;;;;24.90;60.80;;;;;;4150614;28;19936;-46
2023/07/11 06:17:05;;;;;;;;;;;24.90;60.10;;;;;;4172099;28;19978;-50
2023/07/11 06:19:45;;;;;;;;;;;25.00;60.40;;;;;;4172140;28;20057;-51
2023/07/11 06:22:26;;;;;;;;;;;25.00;60.40;;;;;;4167575;28;20035;-49
2023/07/11 06:25:08;;;;;;;;;;;25.00;60.60;;;;;;4155775;28;20306;-52
2023/07/11 06:27:49;;;;;;;;;;;25.10;60.70;;;;;;4156461;28;19933;-52
2023/07/11 06:30:31;;;;;;;;;;;25.20;60.80;;;;;;4168199;28;20411;-49
2023/07/11 06:33:12;;;;;;;;;;;25.30;60.90;;;;;;4170951;28;19935;-49
2023/07/11 06:35:54;;;;;;;;;;;25.30;60.70;;;;;;4172825;28;20407;-46
2023/07/11 06:38:35;;;;;;;;;;;25.40;60.90;;;;;;4171249;28;19935;-44
2023/07/11 06:41:16;;;;;;;;;;;25.40;60.90;;;;;;4156501;28;20296;-48
2023/07/11 06:43:57;;;;;;;;;;;25.50;61.10;;;;;;4153151;28;19983;-47
2023/07/11 06:46:39;;;;;;;;;;;25.60;61.40;;;;;;4155080;28;19936;-50
2023/07/11 06:49:20;;;;;;;;;;;25.60;61.10;;;;;;4173556;28;19931;-46
2023/07/11 06:52:01;;;;;;;;;;;25.70;61.20;;;;;;4180536;28;19940;-47
2023/07/11 06:54:42;;;;;;;;;;;25.70;61.70;;;;;;4165574;28;20261;-47
2023/07/11 06:57:22;;;;;;;;;;;25.80;60.80;;;;;;4150215;28;19935;-49
2023/07/11 07:00:05;;;;;;;;;;;25.80;60.40;;;;;;4151289;28;20047;-50
2023/07/11 07:02:48;;;;;;;;;;;25.90;60.30;;;;;;4132333;28;20502;-49
2023/07/11 07:05:28;;;;;;;;;;;25.90;60.20;;;;;;4156165;28;20296;-47
2023/07/11 07:08:09;;;;;;;;;;;25.90;59.90;;;;;;4143316;28;19984;-45
2023/07/11 07:10:54;;;;;;;;;;;26.00;60.70;;;;;;4169178;28;19936;-44
2023/07/11 07:13:35;;;;;;;;;;;26.00;60.50;;;;;;4167702;28;19932;-44
2023/07/11 07:16:16;;;;;;;;;;;26.10;59.70;;;;;;4169856;28;19986;-44
2023/07/11 07:18:58;;;;;;;;;;;26.00;59.60;;;;;;4171756;28;19947;-48
2023/07/11 07:21:39;;;;;;;;;;;26.10;59.40;;;;;;4170673;28;19936;-48
2023/07/11 07:24:20;;;;;;;;;;;26.10;59.00;;;;;;4171272;28;19935;-49
2023/07/11 07:27:03;;;;;;;;;;;26.20;58.80;;;;;;4170343;28;20339;-47
2023/07/11 07:29:53;;;;;;;;;;;26.20;58.70;;;;;;4159811;28;19955;-46
2023/07/11 07:32:35;;;;;;;;;;;26.20;58.60;;;;;;4171777;28;20296;-45
2023/07/11 07:35:17;;;;;;;;;;;26.30;58.60;;;;;;4171511;28;20010;-50
2023/07/11 07:37:58;;;;;;;;;;;26.30;58.40;;;;;;4158918;28;19932;-46
2023/07/11 07:40:39;;;;;;;;;;;26.20;58.40;;;;;;4154648;28;20058;-45
2023/07/11 07:43:20;;;;;;;;;;;26.20;58.50;;;;;;4155448;28;19936;-45
2023/07/11 07:46:02;;;;;;;;;;;26.20;58.50;;;;;;4154232;28;19952;-49
2023/07/11 07:48:44;;;;;;;;;;;26.20;58.60;;;;;;4156738;28;20047;-46
2023/07/11 07:51:27;;;;;;;;;;;26.20;58.70;;;;;;4158689;28;19935;-45
2023/07/11 07:54:08;;;;;;;;;;;26.20;58.70;;;;;;4166468;28;19932;-46
2023/07/11 07:56:51;;;;;;;;;;;26.20;58.80;;;;;;4141846;28;19952;-48
2023/07/11 07:59:33;;;;;;;;;;;26.20;58.80;;;;;;4157693;28;19932;-47
2023/07/11 08:02:14;;;;;;;;;;;26.10;58.90;;;;;;4169261;28;20283;-46
2023/07/11 08:04:55;;;;;;;;;;;26.10;59.00;;;;;;4168010;28;19978;-50
2023/07/11 08:07:38;;;;;;;;;;;26.10;59.80;;;;;;4166273;28;19991;-48
2023/07/11 08:10:21;;;;;;;;;;;26.10;59.20;;;;;;4166561;28;19932;-45
2023/07/11 08:13:02;;;;;;;;;;;26.10;59.30;;;;;;4167089;28;19935;-47
2023/07/11 08:15:43;;;;;;;;;;;26.20;59.40;;;;;;4169175;28;19990;-45
2023/07/11 08:18:24;;;;;;;;;;;26.20;59.30;;;;;;4171231;28;19935;-44
2023/07/11 08:21:05;;;;;;;;;;;26.20;59.40;;;;;;4171121;28;19948;-44
2023/07/11 08:23:47;;;;;;;;;;;26.20;59.50;;;;;;4170774;28;19971;-45
2023/07/11 08:26:28;;;;;;;;;;;26.20;59.50;;;;;;4171380;28;20058;-44
2023/07/11 08:29:08;;;;;;;;;;;26.30;59.60;;;;;;4171322;28;19936;-47
2023/07/11 08:32:04;;;;;;;;;;;26.30;60.50;;;;;;4161844;28;19931;-47
2023/07/11 08:34:46;;;;;;;;;;;26.30;59.70;;;;;;4164646;28;19936;-46
2023/07/11 08:37:27;;;;;;;;;;;26.30;59.80;;;;;;4154865;28;20268;-47
2023/07/11 08:40:11;;;;;;;;;;;26.30;59.90;;;;;;4169763;28;19935;-46
2023/07/11 08:42:52;;;;;;;;;;;26.30;59.90;;;;;;4170877;28;19936;-49
2023/07/11 08:45:35;;;;;;;;;;;26.30;59.90;;;;;;4170821;28;20307;-50
2023/07/11 08:48:18;;;;;;;;;;;26.30;60.90;;;;;;4169915;28;20031;-48
2023/07/11 08:51:03;;;;;;;;;;;26.30;60.00;;;;;;4171396;28;20291;-47
2023/07/11 08:53:49;;;;;;;;;;;26.30;60.00;;;;;;4154967;28;19935;-46
2023/07/11 08:56:36;;;;;;;;;;;26.30;60.00;;;;;;4164936;28;20337;-50
2023/07/11 08:59:25;;;;;;;;;;;26.30;61.00;;;;;;4168841;28;19931;-46
2023/07/11 09:02:18;;;;;;;;;;;26.40;60.20;;;;;;4171265;28;19932;-46
2023/07/11 09:05:00;;;;;;;;;;;26.40;60.20;;;;;;4169086;28;19936;-48
2023/07/11 09:07:43;;;;;;;;;;;26.40;60.30;;;;;;4172514;28;19936;-47
2023/07/11 09:10:30;;;;;;;;;;;26.50;60.30;;;;;;4156570;28;20026;-50
2023/07/11 09:13:39;;;;;;;;;;;26.50;60.10;;;;;;4154574;28;19936;-49
2023/07/11 09:16:25;;;;;;;;;;;26.60;59.80;;;;;;4155689;28;20022;-46
2023/07/11 09:19:11;;;;;;;;;;;26.60;59.50;;;;;;4157666;28;19936;-45
2023/07/11 09:21:54;;;;;;;;;;;26.60;59.20;;;;;;4157987;28;20091;-46
2023/07/11 09:24:39;;;;;;;;;;;26.70;58.80;;;;;;4141535;28;20026;-48
2023/07/11 09:27:22;;;;;;;;;;;26.70;58.70;;;;;;4157762;28;19936;-45
2023/07/11 09:30:12;;;;;;;;;;;26.70;58.50;;;;;;4152072;28;19936;-47
2023/07/11 09:32:53;;;;;;;;;;;26.80;58.50;;;;;;4155306;28;20299;-45
2023/07/11 09:35:35;;;;;;;;;;;26.80;58.30;;;;;;4157250;28;20478;-45
2023/07/11 09:38:19;;;;;;;;;;;26.90;58.10;;;;;;4157435;28;19935;-49
2023/07/11 09:41:03;;;;;;;;;;;26.90;57.80;;;;;;4157426;28;19936;-44
2023/07/11 09:43:44;;;;;;;;;;;26.90;57.70;;;;;;4155715;28;19978;-45
2023/07/11 09:46:26;;;;;;;;;;;27.00;57.50;;;;;;4156918;28;19932;-45
2023/07/11 09:49:10;;;;;;;;;;;27.00;57.20;;;;;;4156796;28;20004;-49
2023/07/11 09:51:54;;;;;;;;;;;27.00;56.90;;;;;;4157165;28;20013;-50
2023/07/11 09:54:43;;;;;;;;;;;27.00;56.70;;;;;;4140542;28;19936;-46
2023/07/11 09:57:35;;;;;;;;;;;27.10;56.50;;;;;;4155394;28;19936;-47
2023/07/11 10:00:16;;;;;;;;;;;27.10;56.30;;;;;;4147499;28;19932;-47
2023/07/11 10:03:04;;;;;;;;;;;27.20;56.10;;;;;;4156259;28;19932;-49
2023/07/11 10:05:46;;;;;;;;;;;27.10;55.90;;;;;;4155872;28;19936;-46
2023/07/11 10:08:28;;;;;;;;;;;27.20;55.90;;;;;;4156748;28;20074;-48
2023/07/11 10:11:12;;;;;;;;;;;27.20;55.80;;;;;;4141273;28;20396;-50
2023/07/11 10:13:57;;;;;;;;;;;27.20;55.70;;;;;;4153024;28;19932;-45
2023/07/11 10:16:38;;;;;;;;;;;27.20;55.40;;;;;;4156180;28;19932;-45
2023/07/11 10:19:20;;;;;;;;;;;27.20;55.30;;;;;;4155434;28;20063;-46
2023/07/11 10:22:01;;;;;;;;;;;27.20;55.20;;;;;;4158347;28;20010;-50
2023/07/11 10:24:42;;;;;;;;;;;27.20;55.10;;;;;;4173332;28;19936;-45
2023/07/11 10:27:27;;;;;;;;;;;27.20;55.10;;;;;;4173426;28;19939;-49
2023/07/11 10:30:15;;;;;;;;;;;27.20;55.90;;;;;;4161967;28;19932;-49
2023/07/11 10:32:58;;;;;;;;;;;27.30;55.10;;;;;;4156603;28;20284;-45
2023/07/11 10:35:52;;;;;;;;;;;27.30;55.20;;;;;;4156257;28;19939;-48
2023/07/11 10:38:45;;;;;;;;;;;27.30;55.20;;;;;;4156170;28;19999;-56
2023/07/11 10:41:33;;;;;;;;;;;27.30;55.00;;;;;;4155276;28;19940;-48
2023/07/11 10:44:16;;;;;;;;;;;27.30;55.60;;;;;;4156035;28;20375;-45
2023/07/11 10:46:57;;;;;;;;;;;27.30;54.80;;;;;;4156152;28;19936;-44
2023/07/11 10:49:41;;;;;;;;;;;27.30;54.80;;;;;;4155756;28;20458;-45
2023/07/11 10:52:24;;;;;;;;;;;27.40;54.60;;;;;;4156265;28;20347;-46
2023/07/11 10:55:13;;;;;;;;;;;27.40;55.10;;;;;;4155180;28;19964;-48
2023/07/11 10:57:55;;;;;;;;;;;27.40;54.20;;;;;;4155733;28;20311;-55
2023/07/11 11:00:42;;;;;;;;;;;27.40;54.10;;;;;;4155949;28;19964;-46
2023/07/11 11:03:33;;;;;;;;;;;27.50;54.50;;;;;;4155429;28;19951;-46
2023/07/11 11:06:24;;;;;;;;;;;27.50;54.60;;;;;;4155657;28;19932;-45
2023/07/11 11:09:12;;;;;;;;;;;27.50;54.70;;;;;;4153512;28;19940;-51
2023/07/11 11:12:00;;;;;;;;;;;27.50;54.70;;;;;;4155903;28;19936;-46
2023/07/11 11:14:42;;;;;;;;;;;27.50;54.70;;;;;;4156343;28;19932;-47
2023/07/11 11:17:30;;;;;;;;;;;27.50;54.60;;;;;;4149123;28;20291;-49
2023/07/11 11:20:13;;;;;;;;;;;27.60;55.50;;;;;;4140781;28;20408;-46
2023/07/11 11:22:59;;;;;;;;;;;27.60;54.70;;;;;;4144914;28;19936;-44
2023/07/11 11:25:44;;;;;;;;;;;27.60;54.70;;;;;;4156146;28;19936;-50
2023/07/11 11:28:28;;;;;;;;;;;27.60;54.70;;;;;;4155627;28;19935;-48
2023/07/11 11:31:14;;;;;;;;;;;27.70;54.80;;;;;;4155042;28;20491;-45
2023/07/11 11:34:06;;;;;;;;;;;27.60;54.80;;;;;;4155839;28;19931;-49
2023/07/11 11:36:53;;;;;;;;;;;27.60;54.80;;;;;;4142003;28;19940;-47
2023/07/11 11:39:40;;;;;;;;;;;27.70;54.90;;;;;;4155520;28;20018;-46
2023/07/11 11:42:24;;;;;;;;;;;27.70;55.00;;;;;;4155337;28;20018;-45
2023/07/11 11:45:06;;;;;;;;;;;27.70;55.00;;;;;;4154786;28;20417;-46
2023/07/11 11:47:50;;;;;;;;;;;27.70;55.00;;;;;;4155387;28;20018;-45
2023/07/11 11:50:52;;;;;;;;;;;27.70;55.00;;;;;;4154848;28;19936;-48
2023/07/11 11:53:41;;;;;;;;;;;27.70;55.00;;;;;;4155413;28;19932;-46
2023/07/11 11:56:21;;;;;;;;;;;27.80;55.00;;;;;;4155102;28;20018;-45
2023/07/11 11:59:07;;;;;;;;;;;27.80;55.00;;;;;;4154719;28;19932;-46
2023/07/11 12:01:56;;;;;;;;;;;27.80;54.90;;;;;;4153727;28;19932;-48
2023/07/11 12:04:52;;;;;;;;;;;27.90;54.90;;;;;;4155063;28;19940;-48
2023/07/11 12:07:34;;;;;;;;;;;27.90;54.90;;;;;;4153641;28;20042;-47
2023/07/11 12:10:25;;;;;;;;;;;27.90;55.00;;;;;;4154764;28;19936;-53
2023/07/11 12:13:16;;;;;;;;;;;27.90;54.60;;;;;;4153852;28;20303;-51
2023/07/11 12:16:02;;;;;;;;;;;27.90;54.70;;;;;;4152707;28;22181;-49
2023/07/11 12:18:44;;;;;;;;;;;27.90;55.10;;;;;;4154830;28;19936;-53
2023/07/11 12:21:30;;;;;;;;;;;28.00;54.10;;;;;;4142434;28;20387;-53
2023/07/11 12:24:21;;;;;;;;;;;27.90;53.80;;;;;;4138471;28;20015;-52
2023/07/11 12:27:09;;;;;;;;;;;28.00;53.70;;;;;;4152851;28;20264;-51
2023/07/11 12:29:50;;;;;;;;;;;28.00;53.60;;;;;;4155352;28;19932;-53
2023/07/11 12:32:46;;;;;;;;;;;28.00;53.60;;;;;;4155037;28;19936;-54
2023/07/11 12:35:34;;;;;;;;;;;28.00;53.50;;;;;;4154488;28;19936;-51
2023/07/11 12:38:19;;;;;;;;;;;28.00;53.50;;;;;;4154721;28;20059;-48
2023/07/11 12:41:07;;;;;;;;;;;28.00;53.40;;;;;;4155006;28;19975;-46
2023/07/11 12:43:48;;;;;;;;;;;28.00;53.60;;;;;;4158042;28;19936;-44
2023/07/11 12:46:35;;;;;;;;;;;28.00;53.40;;;;;;4145727;28;19936;-45
2023/07/11 12:49:19;;;;;;;;;;;28.00;53.20;;;;;;4157630;28;19936;-50
2023/07/11 12:52:05;;;;;;;;;;;28.00;53.00;;;;;;4158448;28;19933;-48
2023/07/11 12:54:48;;;;;;;;;;;28.00;53.10;;;;;;4157605;28;20693;-50
2023/07/11 12:57:29;;;;;;;;;;;28.00;53.10;;;;;;4158777;28;20021;-47
2023/07/11 13:00:17;;;;;;;;;;;28.10;53.10;;;;;;4158044;28;19936;-52
2023/07/11 13:03:01;;;;;;;;;;;28.10;53.10;;;;;;4157324;28;20387;-51
2023/07/11 13:05:47;;;;;;;;;;;28.10;53.10;;;;;;4157564;28;19936;-50
2023/07/11 13:08:28;;;;;;;;;;;28.10;53.10;;;;;;4156522;28;19932;-49
2023/07/11 13:11:17;;;;;;;;;;;28.10;53.10;;;;;;4158188;28;20276;-51
2023/07/11 13:13:57;;;;;;;;;;;28.10;53.10;;;;;;4156266;28;20294;-52
2023/07/11 13:16:39;;;;;;;;;;;28.10;53.10;;;;;;4156982;28;19936;-50
2023/07/11 13:19:21;;;;;;;;;;;28.20;53.10;;;;;;4156721;28;19932;-49
2023/07/11 13:22:04;;;;;;;;;;;28.20;53.20;;;;;;4157907;28;19935;-47
2023/07/11 13:24:44;;;;;;;;;;;28.20;53.20;;;;;;4157773;28;19932;-50
2023/07/11 13:27:27;;;;;;;;;;;28.20;53.10;;;;;;4145308;28;19935;-51
2023/07/11 13:30:18;;;;;;;;;;;28.20;53.10;;;;;;4156195;28;19932;-48
2023/07/11 13:32:58;;;;;;;;;;;28.20;53.00;;;;;;4156068;28;19936;-49
2023/07/11 13:35:50;;;;;;;;;;;28.20;53.00;;;;;;4157252;28;20406;-48
2023/07/11 13:38:40;;;;;;;;;;;28.30;52.90;;;;;;4154964;28;19932;-48
2023/07/11 13:41:23;;;;;;;;;;;28.30;53.60;;;;;;4157017;28;19944;-53
2023/07/11 13:44:12;;;;;;;;;;;28.30;53.80;;;;;;4157115;28;19936;-50
2023/07/11 13:46:53;;;;;;;;;;;28.30;53.60;;;;;;4157310;28;20438;-52
2023/07/11 13:49:35;;;;;;;;;;;28.20;53.90;;;;;;4157397;28;20002;-50
2023/07/11 13:52:21;;;;;;;;;;;28.30;54.00;;;;;;4156917;28;19936;-49
2023/07/11 13:55:11;;;;;;;;;;;28.30;54.10;;;;;;4156682;28;19944;-52
2023/07/11 13:57:52;;;;;;;;;;;28.30;54.20;;;;;;4157013;28;19944;-48
2023/07/11 14:00:34;;;;;;;;;;;28.30;54.40;;;;;;4156645;28;19936;-50
2023/07/11 14:03:17;;;;;;;;;;;28.30;54.60;;;;;;4155113;28;19932;-47
2023/07/11 14:06:00;;;;;;;;;;;28.30;54.60;;;;;;4139658;28;19936;-47
2023/07/11 14:08:41;;;;;;;;;;;28.30;54.70;;;;;;4157048;28;19966;-49
2023/07/11 14:11:25;;;;;;;;;;;28.30;54.80;;;;;;4156550;28;19936;-52
2023/07/11 14:14:11;;;;;;;;;;;28.30;54.80;;;;;;4156163;28;19948;-52
2023/07/11 14:17:01;;;;;;;;;;;28.20;55.00;;;;;;4155298;28;20275;-50
2023/07/11 14:19:42;;;;;;;;;;;28.30;55.30;;;;;;4156332;28;19936;-50
2023/07/11 14:22:24;;;;;;;;;;;28.20;55.40;;;;;;4156597;28;20010;-46
2023/07/11 14:25:05;;;;;;;;;;;28.20;55.50;;;;;;4156195;28;19978;-47
2023/07/11 14:27:48;;;;;;;;;;;28.20;55.60;;;;;;4156650;28;19931;-46
2023/07/11 14:30:30;;;;;;;;;;;28.20;55.70;;;;;;4154608;28;20415;-44
2023/07/11 14:33:11;;;;;;;;;;;28.20;55.80;;;;;;4155613;28;19936;-43
2023/07/11 14:35:52;;;;;;;;;;;28.20;55.80;;;;;;4156486;28;20026;-45
2023/07/11 14:38:33;;;;;;;;;;;28.20;55.80;;;;;;4156388;28;20379;-45
2023/07/11 14:41:13;;;;;;;;;;;28.20;55.90;;;;;;4166440;28;20403;-48
2023/07/11 14:43:55;;;;;;;;;;;28.20;55.90;;;;;;4154279;28;20382;-49
2023/07/11 14:46:36;;;;;;;;;;;28.20;56.00;;;;;;4156108;28;19931;-49
2023/07/11 14:49:17;;;;;;;;;;;28.20;55.90;;;;;;4155868;28;19991;-45
2023/07/11 14:51:58;;;;;;;;;;;28.30;56.00;;;;;;4154422;28;20063;-53
2023/07/11 14:54:39;;;;;;;;;;;28.30;56.00;;;;;;4155595;28;19944;-50
2023/07/11 14:57:25;;;;;;;;;;;28.30;56.00;;;;;;4155935;28;19951;-50
2023/07/11 15:00:12;;;;;;;;;;;28.30;56.70;;;;;;4155656;28;19935;-48
2023/07/11 15:02:53;;;;;;;;;;;28.30;56.00;;;;;;4155464;28;20018;-46
2023/07/11 15:05:34;;;;;;;;;;;28.30;55.90;;;;;;4154858;28;19994;-43
2023/07/11 15:08:18;;;;;;;;;;;28.30;56.00;;;;;;4155387;28;19937;-44
2023/07/11 15:11:04;;;;;;;;;;;28.30;56.00;;;;;;4155857;28;20308;-44
2023/07/11 15:13:57;;;;;;;;;;;28.30;56.00;;;;;;4155281;28;19936;-45
2023/07/11 15:16:42;;;;;;;;;;;28.30;56.00;;;;;;4155623;28;20083;-44
2023/07/11 15:19:25;;;;;;;;;;;28.30;56.00;;;;;;4155163;28;19963;-45
2023/07/11 15:22:10;;;;;;;;;;;28.40;56.00;;;;;;4155124;28;19936;-46
2023/07/11 15:24:52;;;;;;;;;;;28.40;56.00;;;;;;4155043;28;20403;-45
2023/07/11 15:27:34;;;;;;;;;;;28.30;55.90;;;;;;4155820;28;19933;-49
2023/07/11 15:30:15;;;;;;;;;;;28.30;55.90;;;;;;4155661;28;19932;-47
2023/07/11 15:32:57;;;;;;;;;;;28.40;56.80;;;;;;4155244;28;20315;-45
2023/07/11 15:35:38;;;;;;;;;;;28.40;56.00;;;;;;4155603;28;19935;-45
2023/07/11 15:38:20;;;;;;;;;;;28.40;56.20;;;;;;4155041;28;19936;-43
2023/07/11 15:41:02;;;;;;;;;;;28.40;56.20;;;;;;4155135;28;19936;-44
2023/07/11 15:43:43;;;;;;;;;;;28.40;56.20;;;;;;4155175;28;19933;-48
2023/07/11 15:46:27;;;;;;;;;;;28.40;56.20;;;;;;4154565;28;20396;-44